Time;durP1;ratioP1;P1;durP2;ratioP2;P2;SDS_P1;SDS_P2;PMS_P1;PMS_P2;Temp;Humidity;BMP_temperature;BMP_pressure;BME280_temperature;BME280_humidity;BME280_pressure;Samples;Min_cycle;Max_cycle;Signal;HPM_P1;HPM_P2
2021/08/03 05:00:53;;;;;;;5.47;3.83;;;;;;;31.92;45.67;94826.41;5965516;23;20424;-74
2021/08/03 05:03:19;;;;;;;6.38;3.75;;;;;;;31.56;46.81;94832.66;4983013;28;20117;-74
2021/08/03 05:05:44;;;;;;;8.63;4.00;;;;;;;31.62;46.31;94826.09;4991458;28;20033;-74
2021/08/03 05:08:10;;;;;;;10.90;3.88;;;;;;;31.98;46.13;94841.25;4956685;28;20029;-74
2021/08/03 05:10:36;;;;;;;10.90;3.65;;;;;;;31.76;45.53;94840.19;4990465;28;20034;-74
2021/08/03 05:13:02;;;;;;;5.07;3.70;;;;;;;33.48;41.81;94829.19;4988381;28;20038;-74
2021/08/03 05:15:27;;;;;;;7.22;3.17;;;;;;;32.74;43.22;94832.75;4990129;28;20092;-73
2021/08/03 05:17:53;;;;;;;5.68;3.10;;;;;;;33.50;42.09;94830.44;4972460;28;20030;-73
2021/08/03 05:20:18;;;;;;;4.90;3.00;;;;;;;34.05;40.61;94840.50;4990132;28;20406;-74
2021/08/03 05:22:44;;;;;;;3.13;2.88;;;;;;;35.22;38.66;94843.31;4989140;28;20431;-73
2021/08/03 05:25:10;;;;;;;5.53;3.30;;;;;;;34.70;39.20;94840.91;4956993;28;20049;-73
2021/08/03 05:27:35;;;;;;;8.00;3.28;;;;;;;34.75;39.70;94838.03;4974225;28;20395;-73
2021/08/03 05:30:01;;;;;;;4.90;3.17;;;;;;;35.44;37.71;94841.06;4989671;28;20038;-73
2021/08/03 05:32:28;;;;;;;8.23;3.50;;;;;;;35.40;37.52;94848.22;4956658;28;20060;-74
2021/08/03 05:34:53;;;;;;;4.53;2.78;;;;;;;35.80;37.25;94853.91;4971087;28;20455;-72
2021/08/03 05:37:19;;;;;;;8.65;2.85;;;;;;;35.21;37.10;94841.72;4973402;28;20038;-73
2021/08/03 05:39:44;;;;;;;6.43;2.70;;;;;;;36.93;34.93;94846.88;4990085;28;20026;-73
2021/08/03 05:42:10;;;;;;;4.68;3.20;;;;;;;36.55;36.15;94857.25;4972765;28;20026;-73
2021/08/03 05:44:35;;;;;;;7.90;3.00;;;;;;;36.43;35.28;94849.13;4973343;28;20174;-72
2021/08/03 05:47:01;;;;;;;6.63;2.88;;;;;;;37.39;33.58;94855.59;4940012;28;20057;-73
2021/08/03 05:49:27;;;;;;;4.43;2.63;;;;;;;37.68;33.46;94855.31;4957216;28;20038;-74
2021/08/03 05:51:55;;;;;;;5.05;2.50;;;;;;;37.71;33.56;94853.84;4955781;28;20088;-74
2021/08/03 05:54:21;;;;;;;4.85;3.13;;;;;;;38.19;33.26;94850.91;4954428;28;20451;-74
2021/08/03 05:56:46;;;;;;;6.05;2.92;;;;;;;38.59;32.74;94856.19;4961829;28;20070;-74
2021/08/03 05:59:12;;;;;;;4.68;2.65;;;;;;;36.69;34.86;94851.53;4982868;28;20030;-74
2021/08/03 06:01:37;;;;;;;5.93;2.95;;;;;;;37.78;33.48;94857.53;4989040;28;20221;-74
2021/08/03 06:04:03;;;;;;;10.40;3.40;;;;;;;36.96;33.55;94854.31;4955546;28;20034;-73
2021/08/03 06:06:28;;;;;;;5.53;2.88;;;;;;;35.65;36.19;94856.44;4982794;28;20105;-72
2021/08/03 06:08:54;;;;;;;7.28;3.50;;;;;;;34.65;38.23;94853.75;4929316;28;20033;-72
2021/08/03 06:11:23;;;;;;;4.28;3.53;;;;;;;37.16;33.38;94855.31;4988333;28;20448;-72
2021/08/03 06:13:52;;;;;;;7.47;3.75;;;;;;;35.72;35.29;94856.69;4969436;28;20034;-73
2021/08/03 06:16:19;;;;;;;5.35;3.60;;;;;;;34.99;36.85;94855.47;4989344;28;20034;-73
2021/08/03 06:18:45;;;;;;;5.90;3.50;;;;;;;36.04;34.43;94860.50;4971754;28;20288;-72
2021/08/03 06:21:12;;;;;;;4.25;3.00;;;;;;;38.19;32.91;94855.53;4971938;28;20030;-73
2021/08/03 06:23:37;;;;;;;5.20;3.20;;;;;;;36.67;35.26;94859.97;4989003;28;20503;-73
2021/08/03 06:26:03;;;;;;;3.58;3.28;;;;;;;35.34;37.22;94854.16;4970811;28;20030;-73
2021/08/03 06:28:28;;;;;;;7.50;3.42;;;;;;;38.73;33.35;94853.00;4988171;28;20026;-73
2021/08/03 06:30:55;;;;;;;9.25;3.67;;;;;;;37.36;32.67;94850.88;4969941;28;20019;-73
2021/08/03 06:33:21;;;;;;;7.68;3.90;;;;;;;38.02;32.70;94847.75;4957339;28;20554;-73
2021/08/03 06:35:47;;;;;;;4.93;3.95;;;;;;;38.20;32.57;94857.91;4988771;28;20423;-73
2021/08/03 06:38:13;;;;;;;5.68;3.60;;;;;;;37.65;32.88;94847.88;4971822;28;20374;-73
2021/08/03 06:41:04;;;;;;;4.00;3.58;;;;;;;37.37;32.99;94855.19;4989471;28;20034;-73
2021/08/03 06:43:31;;;;;;;3.95;3.17;;;;;;;38.03;32.54;94860.13;4973066;28;20047;-76
2021/08/03 06:46:01;;;;;;;6.07;3.47;;;;;;;39.49;31.54;94855.16;4971737;28;20392;-73
2021/08/03 06:48:32;;;;;;;5.95;3.78;;;;;;;37.51;33.48;94852.88;4970614;28;20026;-74
2021/08/03 06:51:05;;;;;;;5.07;3.38;;;;;;;38.44;31.56;94854.25;4971511;28;20129;-72
2021/08/03 06:53:30;;;;;;;5.55;3.67;;;;;;;40.70;29.73;94856.28;4969704;28;20028;-72
2021/08/03 06:56:00;;;;;;;8.05;3.72;;;;;;;40.38;28.80;94860.38;4968897;28;20034;-72
2021/08/03 06:58:47;;;;;;;8.25;3.80;;;;;;;39.33;31.20;94851.72;4970042;28;20036;-72
2021/08/03 07:01:17;;;;;;;3.67;3.38;;;;;;;40.95;29.33;94870.28;4968999;28;20054;-73
2021/08/03 07:03:46;;;;;;;5.18;3.65;;;;;;;40.45;30.14;94864.03;4969795;28;20026;-73
2021/08/03 07:06:12;;;;;;;8.68;3.80;;;;;;;37.80;32.77;94862.56;4969560;28;20081;-73
2021/08/03 07:08:37;;;;;;;5.05;3.67;;;;;;;34.10;39.49;94868.00;4970341;28;20022;-73
2021/08/03 07:11:03;;;;;;;7.38;3.75;;;;;;;33.03;41.59;94868.97;4971851;28;20026;-73
2021/08/03 07:13:28;;;;;;;7.47;4.00;;;;;;;31.75;44.13;94864.63;4969214;28;20038;-73
2021/08/03 07:15:54;;;;;;;5.18;3.58;;;;;;;32.11;44.54;94861.88;4971237;28;20022;-73
2021/08/03 07:18:20;;;;;;;5.75;3.90;;;;;;;33.22;42.62;94859.53;4970075;28;20085;-73
2021/08/03 07:20:46;;;;;;;6.00;3.63;;;;;;;33.71;41.61;94857.50;4971636;28;20069;-73
2021/08/03 07:23:12;;;;;;;4.65;3.63;;;;;;;38.81;33.75;94854.78;4954158;28;20026;-73
2021/08/03 07:25:37;;;;;;;7.43;3.88;;;;;;;40.28;31.17;94864.50;4955456;28;20026;-73
2021/08/03 07:28:03;;;;;;;9.68;4.35;;;;;;;41.66;29.30;94863.13;4970831;28;20455;-73
2021/08/03 07:30:28;;;;;;;5.70;4.15;;;;;;;41.70;29.05;94870.19;4987503;28;20030;-72
2021/08/03 07:32:54;;;;;;;8.48;4.03;;;;;;;40.19;31.20;94863.16;4981889;28;20026;-73
2021/08/03 07:35:19;;;;;;;9.23;4.40;;;;;;;40.40;30.98;94866.22;4982344;28;20424;-73
2021/08/03 07:37:44;;;;;;;5.97;4.10;;;;;;;35.12;38.02;94862.56;4970124;28;20089;-72
2021/08/03 07:40:11;;;;;;;6.93;4.30;;;;;;;32.67;43.48;94870.00;4966016;28;20041;-73
2021/08/03 07:42:37;;;;;;;8.57;4.40;;;;;;;32.26;44.06;94861.47;4987640;28;20022;-73
2021/08/03 07:45:06;;;;;;;5.88;4.60;;;;;;;31.95;45.59;94868.69;4969469;28;20451;-73
2021/08/03 07:47:34;;;;;;;7.65;4.25;;;;;;;31.42;47.03;94865.91;4970446;28;20444;-72
2021/08/03 07:49:59;;;;;;;4.78;4.35;;;;;;;31.79;46.01;94868.25;4987202;28;20041;-73
2021/08/03 07:52:25;;;;;;;6.00;4.50;;;;;;;31.83;47.04;94867.34;4969163;28;20038;-73
2021/08/03 07:54:50;;;;;;;9.52;4.68;;;;;;;31.91;45.54;94855.09;4970805;28;20029;-73
2021/08/03 07:57:16;;;;;;;6.95;4.75;;;;;;;31.43;46.51;94848.75;4986378;28;20022;-73
2021/08/03 07:59:42;;;;;;;6.20;5.00;;;;;;;32.02;46.58;94864.44;4972645;28;20027;-73
2021/08/03 08:02:07;;;;;;;6.90;4.38;;;;;;;31.77;44.81;94859.75;4983993;28;20601;-72
2021/08/03 08:04:33;;;;;;;8.23;4.22;;;;;;;31.92;45.23;94856.66;4988480;28;20081;-73
2021/08/03 08:06:58;;;;;;;7.43;4.35;;;;;;;29.64;47.44;94849.03;4986190;28;20664;-72
2021/08/03 08:09:24;;;;;;;7.45;5.07;;;;;;;28.85;51.80;94848.06;4985607;28;20373;-72
2021/08/03 08:11:49;;;;;;;8.65;4.75;;;;;;;30.68;49.54;94841.28;4981256;28;20045;-73
2021/08/03 08:14:15;;;;;;;8.93;4.20;;;;;;;31.22;48.66;94840.41;4985402;28;20039;-73
2021/08/03 08:16:40;;;;;;;5.00;4.10;;;;;;;31.19;46.79;94833.75;4976340;28;20070;-73
2021/08/03 08:19:06;;;;;;;9.15;4.47;;;;;;;30.33;48.39;94838.22;4966639;28;20031;-73
2021/08/03 08:21:34;;;;;;;6.32;4.60;;;;;;;30.44;48.09;94838.81;4971193;28;20084;-72
2021/08/03 08:24:03;;;;;;;7.90;4.70;;;;;;;29.26;51.70;94832.28;4969854;28;20116;-72
2021/08/03 08:26:28;;;;;;;6.75;4.18;;;;;;;28.73;52.53;94832.50;4987568;28;20442;-72
2021/08/03 08:28:54;;;;;;;6.60;4.53;;;;;;;29.19;52.06;94831.81;4965308;28;20102;-72
2021/08/03 08:31:19;;;;;;;10.85;4.60;;;;;;;31.24;49.29;94833.63;4969108;28;20042;-73
2021/08/03 08:33:45;;;;;;;7.35;4.82;;;;;;;30.56;47.60;94825.75;4988083;28;20412;-73
2021/08/03 08:36:10;;;;;;;9.55;5.10;;;;;;;30.99;48.68;94825.38;4986587;28;20029;-73
2021/08/03 08:38:36;;;;;;;4.47;4.03;;;;;;;31.28;48.52;94823.09;4996047;28;20026;-73
2021/08/03 08:41:01;;;;;;;9.75;4.20;;;;;;;30.97;47.15;94827.59;4986410;28;20401;-72
2021/08/03 08:43:27;;;;;;;7.70;4.72;;;;;;;31.40;46.13;94817.22;4992842;28;20042;-73
2021/08/03 08:45:54;;;;;;;9.35;4.80;;;;;;;31.43;46.80;94827.34;4952605;28;20038;-73
2021/08/03 08:48:20;;;;;;;12.50;5.32;;;;;;;31.53;45.05;94824.44;4957576;28;20058;-73
2021/08/03 08:50:45;;;;;;;9.82;4.40;;;;;;;29.95;48.73;94817.28;4961486;28;20050;-72
2021/08/03 08:53:11;;;;;;;11.13;5.18;;;;;;;30.37;49.12;94819.69;4954147;28;20047;-73
2021/08/03 08:55:36;;;;;;;12.43;4.65;;;;;;;30.37;47.23;94824.25;4935864;28;20042;-73
2021/08/03 08:58:02;;;;;;;7.68;4.40;;;;;;;31.12;48.42;94821.88;4954431;28;20026;-73
2021/08/03 09:00:28;;;;;;;8.82;4.63;;;;;;;30.59;47.33;94827.84;4953218;28;20112;-72
2021/08/03 09:02:53;;;;;;;8.57;4.70;;;;;;;31.53;45.90;94821.75;4962191;28;20054;-73
2021/08/03 09:05:56;;;;;;;10.02;4.80;;;;;;;31.55;45.48;94823.03;4959572;28;20038;-73
2021/08/03 09:08:24;;;;;;;8.88;4.85;;;;;;;31.49;44.86;94823.44;4972368;28;20581;-72
2021/08/03 09:10:50;;;;;;;7.97;4.35;;;;;;;31.64;45.22;94821.19;4970942;28;20026;-72
2021/08/03 09:13:17;;;;;;;6.53;4.18;;;;;;;32.20;44.68;94828.63;5004465;28;20023;-73
2021/08/03 09:15:44;;;;;;;7.53;4.60;;;;;;;32.75;43.68;94818.22;4988461;28;20061;-73
2021/08/03 09:18:28;;;;;;;9.75;4.95;;;;;;;30.22;45.79;94809.28;4987940;28;20843;-72
2021/08/03 09:20:53;;;;;;;9.02;4.45;;;;;;;31.84;43.74;94826.06;4986180;28;20105;-73
2021/08/03 09:23:19;;;;;;;9.25;4.57;;;;;;;30.67;45.29;94813.72;5001658;28;20033;-73
2021/08/03 09:25:57;;;;;;;9.23;4.30;;;;;;;31.03;43.19;94811.09;4965243;28;20026;-73
2021/08/03 09:28:22;;;;;;;5.07;3.97;;;;;;;31.14;43.11;94817.03;4959103;28;20026;-73
2021/08/03 09:30:48;;;;;;;6.75;4.13;;;;;;;32.12;42.00;94809.78;4979371;28;20031;-73
2021/08/03 09:33:24;;;;;;;6.07;4.07;;;;;;;32.67;40.64;94805.59;4967839;28;20039;-73
2021/08/03 09:35:49;;;;;;;8.50;4.40;;;;;;;32.59;41.78;94795.59;4985627;28;20092;-73
2021/08/03 09:38:16;;;;;;;7.13;5.55;;;;;;;30.68;44.35;94799.28;4967883;28;20117;-73
2021/08/03 09:40:41;;;;;;;6.18;4.97;;;;;;;31.23;41.27;94786.56;4976639;28;20052;-73
2021/08/03 09:43:11;;;;;;;7.97;4.55;;;;;;;32.08;36.99;94790.84;4971267;28;20027;-73
2021/08/03 09:45:43;;;;;;;6.75;4.43;;;;;;;32.06;38.32;94785.03;4996518;28;20477;-73
2021/08/03 09:48:08;;;;;;;5.47;4.18;;;;;;;31.83;37.17;94796.88;4982620;28;20523;-72
2021/08/03 09:50:59;;;;;;;6.85;4.13;;;;;;;30.69;40.34;94794.72;4976134;28;20022;-73
2021/08/03 09:53:42;;;;;;;5.47;4.32;;;;;;;32.14;39.68;94792.28;4973198;28;20046;-74
2021/08/03 09:56:27;;;;;;;9.98;3.83;;;;;;;32.02;38.05;94775.19;4974959;28;20836;-73
2021/08/03 09:58:56;;;;;;;9.07;3.58;;;;;;;32.34;38.34;94789.06;4984077;28;20045;-73
2021/08/03 10:01:31;;;;;;;5.78;4.00;;;;;;;32.60;38.57;94783.78;4985787;28;20050;-73
2021/08/03 10:03:59;;;;;;;7.13;3.90;;;;;;;32.64;38.35;94782.06;4985115;28;20113;-74
2021/08/03 10:06:24;;;;;;;7.50;4.28;;;;;;;32.87;38.33;94785.41;4966321;28;20030;-73
2021/08/03 10:08:51;;;;;;;6.78;4.15;;;;;;;32.71;37.70;94782.41;4961764;28;20813;-73
2021/08/03 10:11:17;;;;;;;7.03;4.25;;;;;;;32.85;38.65;94780.34;4986473;28;20042;-73
2021/08/03 10:13:43;;;;;;;5.95;3.90;;;;;;;32.89;34.75;94773.25;4966394;28;20054;-73
2021/08/03 10:16:09;;;;;;;4.35;3.60;;;;;;;32.71;35.22;94771.66;4985622;28;20120;-74
2021/08/03 10:18:40;;;;;;;7.05;4.25;;;;;;;32.50;33.47;94767.94;4966448;28;20483;-73
2021/08/03 10:21:16;;;;;;;6.47;3.70;;;;;;;32.11;35.80;94768.78;4959877;28;20026;-73
2021/08/03 10:23:42;;;;;;;5.82;4.13;;;;;;;31.86;36.02;94742.63;4965814;28;20046;-73
2021/08/03 10:26:12;;;;;;;7.20;3.75;;;;;;;32.73;36.62;94765.97;4963315;28;20118;-74
2021/08/03 10:28:38;;;;;;;5.60;4.05;;;;;;;32.42;34.44;94763.38;4966695;28;20115;-73
2021/08/03 10:31:03;;;;;;;4.50;3.95;;;;;;;32.52;35.62;94767.66;4971876;28;20061;-73
2021/08/03 10:33:42;;;;;;;7.38;3.83;;;;;;;33.20;35.16;94762.34;4967333;28;20038;-73
2021/08/03 10:36:08;;;;;;;4.97;3.38;;;;;;;32.80;35.14;94763.59;4967984;28;20026;-73
2021/08/03 10:38:34;;;;;;;4.15;3.75;;;;;;;33.17;32.91;94759.53;4983610;28;20033;-72
2021/08/03 10:41:03;;;;;;;8.00;4.28;;;;;;;32.59;31.67;94755.34;4984351;28;20111;-73
2021/08/03 10:43:35;;;;;;;6.10;3.42;;;;;;;32.88;33.08;94752.84;4963259;28;20503;-73
2021/08/03 10:46:06;;;;;;;6.53;4.03;;;;;;;33.29;31.25;94751.63;4983727;28;20045;-74
2021/08/03 10:48:38;;;;;;;7.43;3.78;;;;;;;33.27;31.24;94749.22;4984166;28;20038;-73
2021/08/03 10:51:12;;;;;;;5.60;3.97;;;;;;;33.06;30.67;94747.50;4979942;28;20101;-73
2021/08/03 10:54:09;;;;;;;4.82;3.15;;;;;;;32.94;30.30;94744.66;4986794;28;20030;-73
2021/08/03 10:56:54;;;;;;;6.28;3.83;;;;;;;32.98;31.52;94748.28;4986421;28;20061;-73
2021/08/03 10:59:38;;;;;;;3.28;2.97;;;;;;;33.49;30.08;94740.19;4968690;28;20153;-73
2021/08/03 11:02:06;;;;;;;5.88;3.47;;;;;;;33.47;31.59;94742.41;4974658;28;20077;-73
2021/08/03 11:04:41;;;;;;;5.25;3.50;;;;;;;33.34;29.55;94746.84;4982188;28;20026;-73
2021/08/03 11:07:29;;;;;;;4.07;3.33;;;;;;;33.26;30.33;94746.88;4981632;28;20034;-72
2021/08/03 11:10:18;;;;;;;5.88;4.35;;;;;;;33.35;30.85;94736.91;4986453;28;20030;-72
2021/08/03 11:12:46;;;;;;;4.78;3.13;;;;;;;33.69;29.63;94736.84;4966798;28;20030;-72
2021/08/03 11:15:21;;;;;;;7.38;3.28;;;;;;;33.56;28.82;94729.72;4976653;28;20030;-72
2021/08/03 11:17:52;;;;;;;4.95;3.35;;;;;;;33.11;28.75;94732.03;4986883;28;20061;-73
2021/08/03 11:20:36;;;;;;;5.13;3.35;;;;;;;33.69;30.39;94734.16;4985595;28;20034;-72
2021/08/03 11:23:03;;;;;;;3.47;3.17;;;;;;;34.03;29.71;94732.44;4983193;28;20484;-73
2021/08/03 11:25:28;;;;;;;7.65;3.55;;;;;;;33.96;27.92;94738.34;4982735;28;20479;-73
2021/08/03 11:27:54;;;;;;;7.75;3.40;;;;;;;33.60;29.04;94736.09;4985248;28;20026;-73
2021/08/03 11:30:19;;;;;;;5.53;3.65;;;;;;;33.64;28.71;94723.59;4984089;28;20535;-73
2021/08/03 11:32:48;;;;;;;5.07;3.65;;;;;;;33.51;28.24;94734.50;4976606;28;20413;-73
2021/08/03 11:35:27;;;;;;;4.25;3.60;;;;;;;33.73;29.73;94731.63;4994228;28;20030;-72
2021/08/03 11:37:52;;;;;;;3.55;3.20;;;;;;;33.68;28.61;94731.81;4980708;28;20088;-71
2021/08/03 11:40:18;;;;;;;4.85;3.72;;;;;;;33.86;28.82;94727.94;4980853;28;21527;-76
2021/08/03 11:42:45;;;;;;;6.60;3.90;;;;;;;33.82;28.21;94733.16;4980859;28;20061;-76
2021/08/03 11:45:11;;;;;;;6.40;3.75;;;;;;;33.76;28.32;94729.06;4961733;28;20034;-76
2021/08/03 11:47:41;;;;;;;6.38;4.20;;;;;;;33.91;30.16;94725.06;4987082;28;20054;-77
2021/08/03 11:50:07;;;;;;;7.85;5.95;;;;;;;33.63;28.84;94718.53;4984671;28;20496;-78
2021/08/03 11:52:32;;;;;;;6.78;5.93;;;;;;;33.30;29.50;94718.25;4984834;28;20516;-79
2021/08/03 11:54:58;;;;;;;6.90;6.20;;;;;;;33.80;29.64;94724.63;4968625;28;20046;-79
2021/08/03 11:57:32;;;;;;;8.75;5.68;;;;;;;33.56;29.86;94707.44;4994707;28;20459;-79
2021/08/03 11:59:57;;;;;;;5.30;4.45;;;;;;;33.28;30.16;94728.53;4958106;28;20046;-80
2021/08/03 12:02:22;;;;;;;5.28;4.63;;;;;;;33.31;30.45;94720.63;4977661;28;20046;-79
2021/08/03 12:05:05;;;;;;;7.05;3.88;;;;;;;33.14;31.42;94719.84;4960712;28;20101;-79
2021/08/03 12:07:30;;;;;;;9.57;4.97;;;;;;;33.48;30.32;94724.38;4949427;28;20027;-79
2021/08/03 12:09:56;;;;;;;6.95;4.30;;;;;;;33.15;30.32;94718.75;4965228;28;20030;-81
2021/08/03 12:12:21;;;;;;;7.53;4.43;;;;;;;33.32;30.22;94726.81;4983924;28;20039;-78
2021/08/03 12:14:47;;;;;;;6.38;4.68;;;;;;;33.39;30.59;94717.13;4974095;28;20030;-80
2021/08/03 12:17:25;;;;;;;10.82;4.57;;;;;;;32.74;28.97;94713.88;4950115;28;20019;-79
2021/08/03 12:19:51;;;;;;;5.25;4.15;;;;;;;32.92;28.87;94714.63;4967648;28;20027;-80
2021/08/03 12:22:26;;;;;;;7.68;4.80;;;;;;;33.18;30.54;94718.91;4984311;28;20102;-80
2021/08/03 12:24:59;;;;;;;6.10;4.40;;;;;;;33.55;31.15;94708.56;4967305;28;20089;-80
2021/08/03 12:27:24;;;;;;;6.90;4.57;;;;;;;33.69;30.32;94712.66;4965751;28;20065;-81
2021/08/03 12:29:50;;;;;;;7.03;4.50;;;;;;;33.54;30.16;94705.09;4959450;28;20058;-80
2021/08/03 12:32:37;;;;;;;5.35;4.57;;;;;;;33.14;30.35;94695.69;4978367;28;20097;-81
2021/08/03 12:35:12;;;;;;;6.07;4.43;;;;;;;33.03;29.15;94699.78;4968795;28;20491;-79
2021/08/03 12:37:38;;;;;;;5.82;4.53;;;;;;;32.96;29.61;94705.66;4965880;28;20488;-80
2021/08/03 12:40:30;;;;;;;7.60;4.75;;;;;;;33.31;29.94;94717.16;4965245;28;20031;-79
2021/08/03 12:42:58;;;;;;;5.20;4.25;;;;;;;33.74;29.59;94709.00;4961118;28;20124;-77
2021/08/03 12:45:24;;;;;;;5.88;4.25;;;;;;;33.67;29.47;94704.13;4968250;28;20050;-78
2021/08/03 12:48:02;;;;;;;5.60;4.50;;;;;;;33.84;31.24;94709.41;4980342;28;20384;-77
2021/08/03 12:50:28;;;;;;;7.55;3.90;;;;;;;34.13;30.45;94695.22;4986248;28;20431;-77
2021/08/03 12:52:59;;;;;;;5.18;4.68;;;;;;;33.13;28.45;94689.56;4987132;28;20128;-75
2021/08/03 12:55:30;;;;;;;6.72;4.32;;;;;;;33.33;30.29;94688.06;4972012;28;20034;-76
2021/08/03 12:57:57;;;;;;;5.05;4.35;;;;;;;33.79;30.86;94695.38;4982357;28;20081;-76
2021/08/03 13:00:39;;;;;;;5.03;4.63;;;;;;;33.37;29.98;94694.38;4970229;28;20791;-76
2021/08/03 13:03:04;;;;;;;4.72;4.22;;;;;;;33.40;30.50;94699.91;4985068;28;20531;-77
2021/08/03 13:05:30;;;;;;;5.72;4.43;;;;;;;33.65;30.14;94694.81;4969555;28;20038;-78
2021/08/03 13:07:55;;;;;;;6.35;4.80;;;;;;;33.09;29.31;94690.50;4958240;28;20030;-77
2021/08/03 13:10:21;;;;;;;5.40;4.85;;;;;;;33.19;30.50;94692.84;4972549;28;20051;-75
2021/08/03 13:12:46;;;;;;;5.15;4.57;;;;;;;33.47;30.39;94685.19;4974180;28;20031;-77
2021/08/03 13:15:12;;;;;;;6.60;6.05;;;;;;;33.38;29.31;94682.53;4960541;28;20097;-76
2021/08/03 13:17:38;;;;;;;6.50;4.93;;;;;;;33.36;30.73;94687.44;4968032;28;20030;-76
2021/08/03 13:20:06;;;;;;;5.63;4.60;;;;;;;33.61;29.96;94683.13;4971679;28;20038;-76
2021/08/03 13:22:31;;;;;;;4.57;4.05;;;;;;;33.27;30.25;94682.06;4987606;28;20045;-76
2021/08/03 13:24:57;;;;;;;4.78;4.35;;;;;;;33.30;30.32;94681.44;4976319;28;20488;-77
2021/08/03 13:27:22;;;;;;;4.85;4.45;;;;;;;33.50;29.70;94677.28;4970564;28;20060;-77
2021/08/03 13:29:48;;;;;;;5.97;4.60;;;;;;;33.40;30.12;94673.03;4969386;28;20049;-78
2021/08/03 13:32:13;;;;;;;6.97;4.38;;;;;;;33.58;30.22;94673.78;4969013;28;20032;-76
2021/08/03 13:34:39;;;;;;;6.00;4.10;;;;;;;33.16;30.44;94667.44;4967540;28;20038;-77
2021/08/03 13:37:04;;;;;;;5.82;4.55;;;;;;;33.37;30.22;94672.88;4956875;28;20066;-78
2021/08/03 13:39:30;;;;;;;4.35;3.97;;;;;;;33.54;30.31;94662.09;4980019;28;20097;-76
2021/08/03 13:41:55;;;;;;;7.45;4.15;;;;;;;33.22;30.21;94662.66;4980888;28;20022;-76
2021/08/03 13:44:21;;;;;;;6.43;4.55;;;;;;;33.38;30.25;94661.03;4997401;28;20515;-76
2021/08/03 13:46:46;;;;;;;12.02;5.28;;;;;;;33.67;30.85;94652.25;4976956;28;20026;-76
2021/08/03 13:49:11;;;;;;;5.47;4.93;;;;;;;33.42;30.35;94648.53;4976473;28;20037;-75
2021/08/03 13:51:38;;;;;;;6.53;4.45;;;;;;;33.44;30.09;94645.53;4969721;28;20027;-76
2021/08/03 13:54:03;;;;;;;7.03;4.20;;;;;;;33.16;29.81;94631.72;4987009;28;20042;-76
2021/08/03 13:56:29;;;;;;;4.70;4.03;;;;;;;32.95;29.68;94645.00;4986860;28;20503;-76
2021/08/03 13:58:54;;;;;;;6.00;4.38;;;;;;;32.98;30.61;94651.59;4986779;28;20043;-76
2021/08/03 14:01:21;;;;;;;4.63;3.67;;;;;;;33.21;30.43;94650.31;4971074;28;20532;-76
2021/08/03 14:03:47;;;;;;;4.78;3.97;;;;;;;33.18;30.04;94649.06;4954700;28;20041;-76
2021/08/03 14:06:12;;;;;;;5.18;4.45;;;;;;;32.81;31.05;94663.19;4969954;28;20060;-76
2021/08/03 14:08:38;;;;;;;6.25;4.43;;;;;;;33.09;32.09;94655.59;4983738;28;20042;-76
2021/08/03 14:11:03;;;;;;;4.82;4.38;;;;;;;33.12;30.57;94665.69;4970914;28;20018;-76
2021/08/03 14:13:29;;;;;;;9.40;4.30;;;;;;;32.99;30.68;94661.25;4987371;28;20122;-75
2021/08/03 14:15:55;;;;;;;9.98;4.22;;;;;;;32.47;31.18;94663.13;4984724;28;20389;-76
2021/08/03 14:18:21;;;;;;;4.10;3.70;;;;;;;32.18;31.55;94661.06;4981526;28;20026;-76
2021/08/03 14:20:47;;;;;;;6.20;4.18;;;;;;;31.97;32.80;94674.25;5003471;28;20403;-75
2021/08/03 14:23:12;;;;;;;5.57;4.00;;;;;;;31.99;33.28;94672.03;5003427;28;20027;-75
2021/08/03 14:25:38;;;;;;;5.10;4.00;;;;;;;31.82;34.49;94678.13;4984444;28;20100;-77
2021/08/03 14:28:07;;;;;;;8.07;4.43;;;;;;;31.79;34.31;94684.13;4985181;28;20045;-75
2021/08/03 14:30:33;;;;;;;6.20;4.55;;;;;;;31.77;34.34;94686.34;4984350;28;20027;-76
2021/08/03 14:32:58;;;;;;;8.98;4.30;;;;;;;31.58;34.37;94691.16;4978407;28;20031;-76
2021/08/03 14:35:24;;;;;;;4.65;4.25;;;;;;;31.40;35.41;94689.47;4994492;28;20527;-76
2021/08/03 14:37:50;;;;;;;5.65;3.97;;;;;;;31.43;36.01;94702.25;4937376;28;20115;-76
2021/08/03 14:40:17;;;;;;;4.28;3.92;;;;;;;31.31;36.58;94677.88;4967703;28;20023;-76
2021/08/03 14:42:42;;;;;;;5.88;4.20;;;;;;;31.11;36.27;94681.91;4975421;28;20525;-75
2021/08/03 14:45:08;;;;;;;6.25;4.35;;;;;;;31.17;35.24;94682.56;4983882;28;20023;-76
2021/08/03 14:47:33;;;;;;;4.30;3.90;;;;;;;31.30;35.11;94676.34;4959105;28;20034;-75
2021/08/03 14:49:59;;;;;;;7.18;4.47;;;;;;;31.30;37.16;94684.38;4969529;28;20037;-74
2021/08/03 14:52:25;;;;;;;5.38;4.00;;;;;;;31.35;36.27;94684.22;4974665;28;20096;-73
2021/08/03 14:54:51;;;;;;;7.72;4.00;;;;;;;31.39;36.87;94674.47;4981836;28;20451;-73
2021/08/03 14:57:16;;;;;;;10.23;3.90;;;;;;;31.37;36.34;94675.91;4976048;28;20504;-73
2021/08/03 14:59:42;;;;;;;6.88;4.00;;;;;;;31.75;35.62;94671.66;4975095;28;20112;-73
2021/08/03 15:02:07;;;;;;;4.95;3.80;;;;;;;32.20;36.13;94670.41;4969679;28;20101;-73
2021/08/03 15:04:33;;;;;;;5.60;3.83;;;;;;;32.09;36.41;94676.34;4974627;28;20030;-74
2021/08/03 15:06:58;;;;;;;5.35;3.17;;;;;;;31.99;36.04;94671.25;4995442;28;20496;-74
2021/08/03 15:09:24;;;;;;;5.95;3.67;;;;;;;31.97;35.75;94676.13;4997157;28;20034;-74
2021/08/03 15:11:49;;;;;;;6.93;3.70;;;;;;;32.20;34.88;94672.28;4981662;28;20040;-73
2021/08/03 15:14:15;;;;;;;6.18;3.63;;;;;;;32.15;32.57;94670.53;4984907;28;20053;-74
2021/08/03 15:16:40;;;;;;;5.60;3.40;;;;;;;31.93;30.80;94665.25;4965022;28;20042;-74
2021/08/03 15:19:06;;;;;;;3.65;3.13;;;;;;;31.32;30.45;94663.41;4984841;28;20034;-74
2021/08/03 15:21:31;;;;;;;5.35;2.90;;;;;;;31.59;30.15;94662.47;4981471;28;20037;-74
2021/08/03 15:23:57;;;;;;;3.50;3.20;;;;;;;31.48;31.11;94666.47;4982921;28;20018;-74
2021/08/03 15:26:22;;;;;;;5.57;3.38;;;;;;;31.29;31.29;94667.50;4983188;28;20033;-74
2021/08/03 15:28:47;;;;;;;4.57;3.53;;;;;;;31.06;31.88;94676.66;4998558;28;20509;-78
2021/08/03 15:31:13;;;;;;;4.97;3.60;;;;;;;30.92;29.51;94667.09;4983428;28;20034;-76
2021/08/03 15:33:38;;;;;;;6.07;3.45;;;;;;;30.78;29.69;94667.94;4968148;28;20498;-75
2021/08/03 15:36:04;;;;;;;6.85;3.50;;;;;;;30.68;29.11;94668.19;4966016;28;20030;-75
2021/08/03 15:38:30;;;;;;;6.35;3.83;;;;;;;30.57;29.48;94666.03;4980907;28;20141;-77
2021/08/03 15:40:56;;;;;;;6.10;3.33;;;;;;;30.50;28.82;94663.81;4967085;28;20411;-77
2021/08/03 15:43:21;;;;;;;4.57;3.80;;;;;;;30.36;28.21;94663.00;4966424;28;20018;-77
2021/08/03 15:45:47;;;;;;;6.30;3.95;;;;;;;30.46;28.55;94667.38;4981141;28;20030;-77
2021/08/03 15:48:13;;;;;;;8.10;4.07;;;;;;;30.34;28.79;94662.53;4981417;28;20118;-75
2021/08/03 15:50:38;;;;;;;11.32;4.20;;;;;;;30.31;30.79;94663.13;4983843;28;20110;-75
2021/08/03 15:53:05;;;;;;;6.50;4.30;;;;;;;30.23;30.11;94666.50;4959594;28;20031;-76
2021/08/03 15:55:30;;;;;;;78.20;6.28;;;;;;;30.14;30.13;94668.31;4982566;28;20038;-77
2021/08/03 15:57:56;;;;;;;14.85;4.57;;;;;;;30.18;32.51;94666.63;4978302;28;20038;-75
2021/08/03 16:00:21;;;;;;;7.05;3.80;;;;;;;30.19;31.47;94668.19;4977041;28;20031;-78
2021/08/03 16:02:47;;;;;;;6.72;3.60;;;;;;;30.27;38.18;94670.97;4962548;28;20093;-74
2021/08/03 16:05:13;;;;;;;8.02;4.20;;;;;;;30.28;32.13;94669.06;4999360;28;20034;-75
2021/08/03 16:07:38;;;;;;;7.55;3.50;;;;;;;30.34;34.32;94671.31;4967334;28;20042;-77
2021/08/03 16:10:05;;;;;;;5.53;3.60;;;;;;;30.24;33.59;94676.91;4982481;28;20093;-77
2021/08/03 16:12:31;;;;;;;5.43;3.88;;;;;;;30.48;32.08;94679.34;4951592;28;20030;-73
2021/08/03 16:14:56;;;;;;;5.85;3.50;;;;;;;30.44;32.56;94682.94;4964429;28;20513;-73
2021/08/03 16:17:26;;;;;;;8.00;3.08;;;;;;;30.23;33.52;94661.16;4983217;28;20026;-81
2021/08/03 16:19:52;;;;;;;7.88;3.45;;;;;;;29.80;34.05;94666.84;4953630;28;20038;-80
2021/08/03 16:22:17;;;;;;;4.72;3.47;;;;;;;29.51;36.17;94668.22;4969836;28;20500;-84
2021/08/03 16:24:44;;;;;;;4.93;3.88;;;;;;;29.79;36.65;94675.16;4982263;28;20042;-80
2021/08/03 16:27:11;;;;;;;6.50;4.28;;;;;;;29.50;40.65;94675.44;5000201;28;20050;-80
2021/08/03 16:29:37;;;;;;;5.43;4.43;;;;;;;29.32;41.41;94657.63;4977720;28;20109;-77
2021/08/03 16:32:03;;;;;;;7.18;4.50;;;;;;;29.35;42.50;94672.28;4986314;28;20029;-77
2021/08/03 16:34:29;;;;;;;6.75;5.88;;;;;;;29.05;42.92;94665.56;4952223;28;20063;-77
2021/08/03 16:36:54;;;;;;;8.88;5.20;;;;;;;29.16;43.30;94662.41;4986678;28;20023;-75